Time;durP1;ratioP1;P1;durP2;ratioP2;P2;SDS_P1;SDS_P2;PMS_P1;PMS_P2;Temp;Humidity;BMP_temperature;BMP_pressure;BME280_temperature;BME280_humidity;BME280_pressure;Samples;Min_cycle;Max_cycle;Signal;HPM_P1;HPM_P2
2023/08/23 00:00:26;;;;;;;7.43;5.55;;;;;;;;;;5089493;28;20423;-57
2023/08/23 00:02:52;;;;;;;8.20;5.90;;;;;;;;;;5086743;28;20071;-57
2023/08/23 00:05:18;;;;;;;6.65;4.75;;;;;;;;;;5086301;28;20070;-56
2023/08/23 00:07:44;;;;;;;8.93;6.30;;;;;;;;;;5094553;28;20119;-57
2023/08/23 00:10:10;;;;;;;14.18;7.43;;;;;;;;;;5092262;28;20085;-57
2023/08/23 00:12:37;;;;;;;19.80;5.25;;;;;;;;;;5096530;28;20051;-57
2023/08/23 00:15:03;;;;;;;17.40;5.90;;;;;;;;;;5100853;28;20546;-57
2023/08/23 00:17:29;;;;;;;15.60;6.55;;;;;;;;;;5095357;27;20071;-57
2023/08/23 00:19:55;;;;;;;6.68;5.03;;;;;;;;;;5087134;28;20044;-57
2023/08/23 00:22:21;;;;;;;15.68;5.47;;;;;;;;;;5090662;28;20044;-57
2023/08/23 00:24:48;;;;;;;24.58;6.35;;;;;;;;;;5086607;28;20120;-57
2023/08/23 00:27:14;;;;;;;81.10;7.07;;;;;;;;;;5102715;28;20093;-57
2023/08/23 00:29:40;;;;;;;155.43;7.00;;;;;;;;;;5085509;28;20040;-57
2023/08/23 00:32:06;;;;;;;106.82;8.10;;;;;;;;;;5091642;28;20040;-56
2023/08/23 00:34:32;;;;;;;24.55;7.57;;;;;;;;;;5094012;28;20139;-56
2023/08/23 00:36:59;;;;;;;10.90;7.10;;;;;;;;;;5097579;28;20110;-57
2023/08/23 00:39:25;;;;;;;13.18;8.60;;;;;;;;;;5091844;28;20052;-57
2023/08/23 00:41:51;;;;;;;12.93;9.95;;;;;;;;;;5095630;28;20028;-57
2023/08/23 00:44:17;;;;;;;15.05;9.52;;;;;;;;;;5102393;28;20079;-56
2023/08/23 00:46:43;;;;;;;15.40;10.73;;;;;;;;;;5092167;28;20449;-57
2023/08/23 00:49:09;;;;;;;14.95;10.43;;;;;;;;;;5089211;28;20084;-57
2023/08/23 00:51:36;;;;;;;14.60;10.85;;;;;;;;;;5090391;28;20386;-57
2023/08/23 00:54:03;;;;;;;14.75;10.68;;;;;;;;;;5089929;28;20051;-57
2023/08/23 00:56:30;;;;;;;16.38;11.32;;;;;;;;;;5085719;28;20123;-57
2023/08/23 00:58:56;;;;;;;41.63;11.10;;;;;;;;;;5089580;28;20140;-57
2023/08/23 01:01:22;;;;;;;92.13;11.80;;;;;;;;;;5083956;28;20036;-57
2023/08/23 01:03:50;;;;;;;22.90;9.45;;;;;;;;;;5084957;28;20127;-57
2023/08/23 01:06:22;;;;;;;25.15;7.93;;;;;;;;;;5083862;28;20395;-57
2023/08/23 01:09:00;;;;;;;63.35;7.78;;;;;;;;;;5083707;28;20105;-57
2023/08/23 01:11:46;;;;;;;55.70;6.63;;;;;;;;;;5091473;28;20036;-57
2023/08/23 01:14:20;;;;;;;81.88;5.65;;;;;;;;;;5096606;28;20075;-57
2023/08/23 01:16:50;;;;;;;131.73;8.50;;;;;;;;;;5086831;28;20032;-57
2023/08/23 01:19:34;;;;;;;38.30;7.35;;;;;;;;;;5090045;28;20044;-57
2023/08/23 01:22:05;;;;;;;20.20;9.05;;;;;;;;;;5094200;28;20130;-57
2023/08/23 01:24:31;;;;;;;10.75;7.80;;;;;;;;;;5093342;28;20139;-57
2023/08/23 01:26:57;;;;;;;13.90;9.07;;;;;;;;;;5087197;28;20388;-57
2023/08/23 01:29:23;;;;;;;14.48;9.85;;;;;;;;;;5085180;28;20116;-57
2023/08/23 01:31:52;;;;;;;17.27;11.13;;;;;;;;;;5104012;28;20055;-57
2023/08/23 01:34:26;;;;;;;15.68;10.55;;;;;;;;;;5090727;28;20047;-57
2023/08/23 01:36:54;;;;;;;19.45;10.88;;;;;;;;;;5086609;28;20147;-57
2023/08/23 01:39:22;;;;;;;16.92;11.32;;;;;;;;;;5089191;28;20081;-57
2023/08/23 01:41:50;;;;;;;18.48;11.35;;;;;;;;;;5089827;28;20383;-56
2023/08/23 01:44:16;;;;;;;14.02;10.52;;;;;;;;;;5081921;28;20044;-57
2023/08/23 01:46:42;;;;;;;12.85;9.63;;;;;;;;;;5089305;28;20036;-57
2023/08/23 01:49:08;;;;;;;13.38;9.15;;;;;;;;;;5091417;28;20039;-56
2023/08/23 01:51:34;;;;;;;14.73;9.85;;;;;;;;;;5100976;28;20051;-57
2023/08/23 01:54:01;;;;;;;15.93;9.60;;;;;;;;;;5093580;28;20066;-57
2023/08/23 01:56:27;;;;;;;15.00;9.43;;;;;;;;;;5095894;28;20078;-57
2023/08/23 01:58:53;;;;;;;12.63;9.30;;;;;;;;;;5093244;28;20139;-57
2023/08/23 02:01:19;;;;;;;16.55;9.15;;;;;;;;;;5094829;28;20408;-57
2023/08/23 02:03:46;;;;;;;13.38;8.95;;;;;;;;;;5087665;28;20044;-57
2023/08/23 02:06:13;;;;;;;12.57;9.20;;;;;;;;;;5079171;28;20075;-56
2023/08/23 02:08:39;;;;;;;17.88;11.07;;;;;;;;;;5089462;28;20044;-56
2023/08/23 02:11:05;;;;;;;11.63;8.98;;;;;;;;;;5090042;28;20441;-56
2023/08/23 02:13:31;;;;;;;14.23;8.48;;;;;;;;;;5090235;28;20040;-56
2023/08/23 02:15:57;;;;;;;12.88;8.48;;;;;;;;;;5089106;28;20356;-56
2023/08/23 02:18:24;;;;;;;13.10;8.43;;;;;;;;;;5081110;28;20124;-56
2023/08/23 02:20:59;;;;;;;11.85;8.63;;;;;;;;;;5087503;28;20044;-55
2023/08/23 02:23:26;;;;;;;18.00;8.32;;;;;;;;;;5080672;28;20492;-56
2023/08/23 02:25:52;;;;;;;16.80;8.90;;;;;;;;;;5081112;28;20068;-56
2023/08/23 02:28:19;;;;;;;51.63;8.75;;;;;;;;;;5084447;28;20098;-56
2023/08/23 02:30:45;;;;;;;75.28;8.43;;;;;;;;;;5082083;28;20498;-55
2023/08/23 02:33:12;;;;;;;24.08;7.25;;;;;;;;;;5081881;28;20036;-56
2023/08/23 02:35:46;;;;;;;12.70;7.30;;;;;;;;;;5079614;28;20043;-55
2023/08/23 02:38:13;;;;;;;31.13;7.90;;;;;;;;;;5081576;28;20522;-55
2023/08/23 02:40:42;;;;;;;29.13;8.82;;;;;;;;;;5082053;28;20071;-56
2023/08/23 02:43:09;;;;;;;20.67;8.18;;;;;;;;;;5085540;28;20458;-55
2023/08/23 02:45:42;;;;;;;12.40;7.47;;;;;;;;;;5090696;28;20117;-56
2023/08/23 02:48:09;;;;;;;13.50;9.07;;;;;;;;;;5088811;28;20040;-56
2023/08/23 02:50:36;;;;;;;15.32;9.68;;;;;;;;;;5090236;28;20294;-56
2023/08/23 02:53:02;;;;;;;14.93;10.30;;;;;;;;;;5088466;28;20052;-56
2023/08/23 02:55:28;;;;;;;14.57;10.50;;;;;;;;;;5083034;28;20063;-56
2023/08/23 02:57:55;;;;;;;18.23;11.93;;;;;;;;;;5082343;28;20437;-55
2023/08/23 03:00:21;;;;;;;16.88;11.43;;;;;;;;;;5082790;28;20389;-56
2023/08/23 03:02:47;;;;;;;19.83;12.30;;;;;;;;;;5081951;28;20055;-56
2023/08/23 03:05:13;;;;;;;19.58;12.05;;;;;;;;;;5088896;28;20047;-56
2023/08/23 03:07:39;;;;;;;20.23;12.25;;;;;;;;;;5086231;28;20444;-56
2023/08/23 03:10:06;;;;;;;16.70;11.88;;;;;;;;;;5078358;28;20032;-56
2023/08/23 03:12:32;;;;;;;15.18;11.38;;;;;;;;;;5082139;28;20047;-56
2023/08/23 03:14:58;;;;;;;16.27;12.27;;;;;;;;;;5084512;28;20086;-56
2023/08/23 03:17:24;;;;;;;16.30;12.40;;;;;;;;;;5081988;28;20117;-56
2023/08/23 03:19:50;;;;;;;19.38;13.45;;;;;;;;;;5079446;28;20494;-56
2023/08/23 03:22:17;;;;;;;17.90;12.63;;;;;;;;;;5083704;28;20565;-55
2023/08/23 03:24:43;;;;;;;17.88;11.80;;;;;;;;;;5096136;28;20044;-56
2023/08/23 03:27:09;;;;;;;15.68;11.35;;;;;;;;;;5085622;28;20424;-55
2023/08/23 03:29:35;;;;;;;16.88;12.38;;;;;;;;;;5086262;28;20040;-56
2023/08/23 03:32:01;;;;;;;16.95;12.73;;;;;;;;;;5084184;28;20092;-56
2023/08/23 03:34:27;;;;;;;18.80;12.52;;;;;;;;;;5081546;28;20391;-56
2023/08/23 03:36:54;;;;;;;17.75;11.68;;;;;;;;;;5081664;28;20048;-59
2023/08/23 03:39:20;;;;;;;16.65;11.98;;;;;;;;;;5082120;28;20044;-59
2023/08/23 03:41:47;;;;;;;15.38;10.38;;;;;;;;;;5083806;28;20059;-58
2023/08/23 03:44:13;;;;;;;15.23;12.13;;;;;;;;;;5080391;28;20043;-58
2023/08/23 03:46:39;;;;;;;15.80;11.27;;;;;;;;;;5081247;28;20043;-59
2023/08/23 03:49:05;;;;;;;15.57;11.80;;;;;;;;;;5082294;28;20112;-58
2023/08/23 03:51:32;;;;;;;15.80;11.65;;;;;;;;;;5085118;28;20058;-58
2023/08/23 03:53:58;;;;;;;19.88;11.75;;;;;;;;;;5089159;28;20044;-58
2023/08/23 03:56:24;;;;;;;15.77;11.80;;;;;;;;;;5087604;28;20068;-59
2023/08/23 03:58:50;;;;;;;16.65;11.80;;;;;;;;;;5087661;28;20043;-58
2023/08/23 04:01:17;;;;;;;16.75;11.80;;;;;;;;;;5082730;28;20044;-59
2023/08/23 04:03:43;;;;;;;17.73;12.95;;;;;;;;;;5081780;28;20570;-58
2023/08/23 04:06:09;;;;;;;17.90;11.90;;;;;;;;;;5084795;28;20078;-58
2023/08/23 04:08:35;;;;;;;17.95;12.73;;;;;;;;;;5086705;28;20044;-58
2023/08/23 04:11:01;;;;;;;19.38;13.32;;;;;;;;;;5082962;28;20052;-58
2023/08/23 04:13:27;;;;;;;19.13;14.23;;;;;;;;;;5085524;28;20150;-59
2023/08/23 04:15:54;;;;;;;19.75;13.65;;;;;;;;;;5085560;28;20095;-58
2023/08/23 04:18:20;;;;;;;22.75;13.80;;;;;;;;;;5084784;28;20391;-59
2023/08/23 04:20:46;;;;;;;19.70;14.10;;;;;;;;;;5081007;28;20119;-58
2023/08/23 04:23:12;;;;;;;21.17;14.73;;;;;;;;;;5087228;28;20044;-58
2023/08/23 04:25:38;;;;;;;20.88;13.57;;;;;;;;;;5084687;28;20165;-58
2023/08/23 04:28:05;;;;;;;19.10;13.68;;;;;;;;;;5086672;28;20185;-58
2023/08/23 04:30:31;;;;;;;20.23;14.05;;;;;;;;;;5084588;28;20063;-58
2023/08/23 04:32:57;;;;;;;23.27;13.85;;;;;;;;;;5089178;28;20467;-58
2023/08/23 04:35:24;;;;;;;20.25;13.60;;;;;;;;;;5090623;28;20032;-58
2023/08/23 04:37:50;;;;;;;22.67;14.18;;;;;;;;;;5089036;28;20044;-58
2023/08/23 04:40:16;;;;;;;19.65;14.45;;;;;;;;;;5094130;28;20156;-58
2023/08/23 04:42:42;;;;;;;18.80;13.50;;;;;;;;;;5092603;28;20105;-59
2023/08/23 04:45:09;;;;;;;21.83;14.90;;;;;;;;;;5087963;28;20031;-58
2023/08/23 04:47:35;;;;;;;20.55;14.80;;;;;;;;;;5091069;28;20091;-58
2023/08/23 04:50:01;;;;;;;23.20;15.00;;;;;;;;;;5091534;28;20125;-58
2023/08/23 04:52:28;;;;;;;22.23;15.95;;;;;;;;;;5092601;28;20464;-58
2023/08/23 04:54:54;;;;;;;22.27;15.70;;;;;;;;;;5091280;28;20028;-58
2023/08/23 04:57:20;;;;;;;22.83;15.40;;;;;;;;;;5102736;28;20039;-58
2023/08/23 04:59:46;;;;;;;25.23;16.63;;;;;;;;;;5090935;28;20733;-58
2023/08/23 05:02:13;;;;;;;25.08;15.05;;;;;;;;;;5095726;27;20131;-58
2023/08/23 05:04:39;;;;;;;21.50;15.35;;;;;;;;;;5089514;28;20532;-58
2023/08/23 05:07:05;;;;;;;23.77;15.63;;;;;;;;;;5092346;28;20458;-58
2023/08/23 05:09:31;;;;;;;24.30;15.40;;;;;;;;;;5092117;28;20126;-58
2023/08/23 05:11:57;;;;;;;19.17;14.43;;;;;;;;;;5090968;28;20047;-58
2023/08/23 05:14:23;;;;;;;21.20;13.93;;;;;;;;;;5086709;28;20179;-58
2023/08/23 05:16:50;;;;;;;22.83;14.82;;;;;;;;;;5090515;28;20352;-58
2023/08/23 05:19:16;;;;;;;22.88;14.57;;;;;;;;;;5091919;28;20044;-58
2023/08/23 05:21:42;;;;;;;19.73;14.30;;;;;;;;;;5090696;28;20506;-58
2023/08/23 05:24:08;;;;;;;19.10;13.80;;;;;;;;;;5090337;28;20089;-59
2023/08/23 05:26:34;;;;;;;18.83;13.52;;;;;;;;;;5091511;28;20040;-58
2023/08/23 05:29:01;;;;;;;18.92;13.63;;;;;;;;;;5091166;28;20083;-58
2023/08/23 05:31:28;;;;;;;20.73;13.65;;;;;;;;;;5091584;28;20055;-58
2023/08/23 05:33:54;;;;;;;19.58;14.48;;;;;;;;;;5089468;28;20036;-58
2023/08/23 05:36:20;;;;;;;21.67;14.73;;;;;;;;;;5086789;28;20093;-58
2023/08/23 05:38:47;;;;;;;20.95;14.43;;;;;;;;;;5091469;28;20147;-59
2023/08/23 05:41:13;;;;;;;19.48;14.52;;;;;;;;;;5095655;28;20051;-58
2023/08/23 05:43:39;;;;;;;27.42;15.57;;;;;;;;;;5090672;28;20157;-58
2023/08/23 05:46:05;;;;;;;26.35;16.95;;;;;;;;;;5091504;28;20139;-58
2023/08/23 05:48:34;;;;;;;28.55;19.00;;;;;;;;;;5089706;28;20458;-58
2023/08/23 05:51:02;;;;;;;28.60;18.83;;;;;;;;;;5087350;28;20450;-58
2023/08/23 05:53:28;;;;;;;32.28;19.45;;;;;;;;;;5087997;28;20512;-59
2023/08/23 05:55:55;;;;;;;32.80;19.98;;;;;;;;;;5089263;28;20135;-60
2023/08/23 05:58:21;;;;;;;32.72;21.42;;;;;;;;;;5082632;28;20081;-59
2023/08/23 06:00:48;;;;;;;28.77;20.45;;;;;;;;;;5087054;28;20123;-60
2023/08/23 06:03:15;;;;;;;33.78;21.83;;;;;;;;;;5088013;28;20059;-60
2023/08/23 06:05:42;;;;;;;33.13;21.48;;;;;;;;;;5090111;28;20395;-59
2023/08/23 06:08:10;;;;;;;33.33;20.88;;;;;;;;;;5091380;28;20063;-60
2023/08/23 06:10:36;;;;;;;30.30;21.35;;;;;;;;;;5096360;28;20043;-60
2023/08/23 06:13:03;;;;;;;37.33;22.83;;;;;;;;;;5091625;28;20051;-60
2023/08/23 06:15:29;;;;;;;33.42;23.25;;;;;;;;;;5090819;28;20172;-60
2023/08/23 06:17:56;;;;;;;39.40;24.55;;;;;;;;;;5090327;28;20044;-60
2023/08/23 06:20:22;;;;;;;38.63;24.42;;;;;;;;;;5088290;28;20043;-60
2023/08/23 06:22:48;;;;;;;39.90;24.90;;;;;;;;;;5091125;28;20048;-60
2023/08/23 06:25:14;;;;;;;41.88;25.70;;;;;;;;;;5084641;28;20040;-60
2023/08/23 06:27:41;;;;;;;45.88;27.67;;;;;;;;;;5090518;28;20491;-60
2023/08/23 06:30:07;;;;;;;45.95;26.92;;;;;;;;;;5089310;28;20931;-60
2023/08/23 06:32:33;;;;;;;46.97;27.20;;;;;;;;;;5085041;28;20054;-60
2023/08/23 06:35:00;;;;;;;43.67;27.52;;;;;;;;;;5091747;28;20404;-60
2023/08/23 06:37:26;;;;;;;44.60;27.83;;;;;;;;;;5090240;28;20441;-60
2023/08/23 06:39:52;;;;;;;48.03;28.67;;;;;;;;;;5090328;28;20047;-60
2023/08/23 06:42:18;;;;;;;50.05;29.05;;;;;;;;;;5086913;28;20040;-61
2023/08/23 06:44:44;;;;;;;50.03;30.20;;;;;;;;;;5088240;28;20124;-61
2023/08/23 06:47:11;;;;;;;51.28;30.35;;;;;;;;;;5090182;28;20040;-61
2023/08/23 06:49:37;;;;;;;50.25;31.13;;;;;;;;;;5087458;28;20040;-60
2023/08/23 06:52:03;;;;;;;58.55;32.30;;;;;;;;;;5088365;28;20086;-58
2023/08/23 06:54:29;;;;;;;47.20;28.77;;;;;;;;;;5088349;28;20054;-58
2023/08/23 06:56:56;;;;;;;48.28;29.33;;;;;;;;;;5097787;28;20044;-58
2023/08/23 06:59:22;;;;;;;45.88;30.20;;;;;;;;;;5089878;28;20036;-58
2023/08/23 07:01:48;;;;;;;53.75;30.35;;;;;;;;;;5090663;28;20178;-58
2023/08/23 07:04:14;;;;;;;47.92;28.08;;;;;;;;;;5089679;28;20044;-58
2023/08/23 07:06:41;;;;;;;41.72;27.27;;;;;;;;;;5089746;28;20531;-58
2023/08/23 07:09:10;;;;;;;49.78;29.55;;;;;;;;;;5090364;28;20067;-58
2023/08/23 07:11:36;;;;;;;47.97;29.02;;;;;;;;;;5090539;28;20051;-59
2023/08/23 07:14:02;;;;;;;43.47;27.33;;;;;;;;;;5087454;28;20197;-58
2023/08/23 07:16:29;;;;;;;36.22;25.23;;;;;;;;;;5093084;28;20450;-58
2023/08/23 07:18:55;;;;;;;35.35;25.20;;;;;;;;;;5090368;28;20132;-58
2023/08/23 07:21:21;;;;;;;35.42;24.00;;;;;;;;;;5089237;28;20089;-58
2023/08/23 07:23:47;;;;;;;37.92;24.30;;;;;;;;;;5089740;28;20428;-58
2023/08/23 07:26:14;;;;;;;35.95;25.98;;;;;;;;;;5090310;28;20153;-58
2023/08/23 07:28:40;;;;;;;35.50;24.15;;;;;;;;;;5089990;28;20050;-58
2023/08/23 07:31:06;;;;;;;38.25;24.85;;;;;;;;;;5092579;28;20084;-58
2023/08/23 07:33:33;;;;;;;32.17;24.23;;;;;;;;;;5090564;28;20433;-58
2023/08/23 07:36:00;;;;;;;38.47;24.83;;;;;;;;;;5087861;28;20089;-58
2023/08/23 07:38:28;;;;;;;33.28;23.00;;;;;;;;;;5090790;28;20474;-58
2023/08/23 07:40:58;;;;;;;33.70;23.35;;;;;;;;;;5093385;28;20082;-59
2023/08/23 07:43:24;;;;;;;33.78;23.30;;;;;;;;;;5091248;28;20352;-58
2023/08/23 07:45:57;;;;;;;34.80;23.40;;;;;;;;;;5094301;28;20067;-59
2023/08/23 07:48:24;;;;;;;38.47;25.83;;;;;;;;;;5093594;28;20044;-59
2023/08/23 07:50:51;;;;;;;33.47;24.17;;;;;;;;;;5092725;28;20500;-58
2023/08/23 07:53:17;;;;;;;32.10;24.23;;;;;;;;;;5094039;28;20494;-58
2023/08/23 07:55:43;;;;;;;37.78;25.10;;;;;;;;;;5093174;28;20122;-58
2023/08/23 07:58:10;;;;;;;35.20;24.33;;;;;;;;;;5091977;28;20104;-58
2023/08/23 08:00:36;;;;;;;35.53;24.75;;;;;;;;;;5092811;28;20130;-58
2023/08/23 08:03:03;;;;;;;37.25;25.42;;;;;;;;;;5086613;28;20426;-58
2023/08/23 08:05:30;;;;;;;33.63;24.58;;;;;;;;;;5092551;28;20052;-58
2023/08/23 08:07:56;;;;;;;31.35;22.17;;;;;;;;;;5093815;28;20345;-58
2023/08/23 08:10:23;;;;;;;30.90;22.20;;;;;;;;;;5092894;28;20059;-58
2023/08/23 08:12:49;;;;;;;29.50;20.73;;;;;;;;;;5092612;28;20071;-58
2023/08/23 08:15:16;;;;;;;33.20;23.33;;;;;;;;;;5088347;28;20126;-58
2023/08/23 08:17:43;;;;;;;31.63;22.10;;;;;;;;;;5084043;28;20540;-58
2023/08/23 08:20:09;;;;;;;33.20;19.70;;;;;;;;;;5090281;28;20102;-58
2023/08/23 08:22:37;;;;;;;23.75;17.10;;;;;;;;;;5089397;28;20169;-58
2023/08/23 08:25:04;;;;;;;20.17;13.93;;;;;;;;;;5084684;28;20040;-57
2023/08/23 08:27:30;;;;;;;23.98;15.20;;;;;;;;;;5089454;28;20087;-57
2023/08/23 08:29:56;;;;;;;24.63;14.68;;;;;;;;;;5093110;28;20065;-64
2023/08/23 08:32:24;;;;;;;20.80;14.00;;;;;;;;;;5089216;28;20563;-57
2023/08/23 08:34:51;;;;;;;24.48;15.15;;;;;;;;;;5092885;28;20043;-57
2023/08/23 08:37:18;;;;;;;20.63;12.65;;;;;;;;;;5093333;28;20052;-57
2023/08/23 08:39:44;;;;;;;20.98;13.30;;;;;;;;;;5092221;28;20059;-57
2023/08/23 08:42:11;;;;;;;14.63;11.18;;;;;;;;;;5093042;28;20111;-57
2023/08/23 08:44:37;;;;;;;17.92;12.40;;;;;;;;;;5092911;28;20040;-57
2023/08/23 08:47:03;;;;;;;15.15;9.82;;;;;;;;;;5092142;28;20063;-57
2023/08/23 08:49:29;;;;;;;13.65;8.88;;;;;;;;;;5091340;28;20163;-57
2023/08/23 08:51:59;;;;;;;15.95;9.23;;;;;;;;;;5091064;28;20062;-57
2023/08/23 08:54:26;;;;;;;14.13;9.10;;;;;;;;;;5091762;28;20036;-57
2023/08/23 08:56:52;;;;;;;14.80;8.57;;;;;;;;;;5092496;28;20499;-57
2023/08/23 08:59:19;;;;;;;16.40;8.43;;;;;;;;;;5091756;28;20185;-57
2023/08/23 09:01:46;;;;;;;17.67;10.02;;;;;;;;;;5092869;28;20040;-58
2023/08/23 09:04:12;;;;;;;14.85;8.55;;;;;;;;;;5092439;28;20040;-57
2023/08/23 09:06:40;;;;;;;16.17;8.93;;;;;;;;;;5091796;28;20044;-57
2023/08/23 09:09:07;;;;;;;13.40;8.35;;;;;;;;;;5092464;28;20444;-57
2023/08/23 09:11:36;;;;;;;16.67;8.15;;;;;;;;;;5092551;28;20487;-57
2023/08/23 09:14:21;;;;;;;10.20;6.80;;;;;;;;;;5091574;28;20044;-57
2023/08/23 09:16:48;;;;;;;14.32;7.05;;;;;;;;;;5092653;28;20044;-57
2023/08/23 09:19:14;;;;;;;16.80;8.57;;;;;;;;;;5092149;28;20459;-57
2023/08/23 09:21:45;;;;;;;15.57;9.02;;;;;;;;;;5091607;28;20138;-58
2023/08/23 09:24:11;;;;;;;15.45;8.18;;;;;;;;;;5091961;28;20051;-57
2023/08/23 09:26:38;;;;;;;14.65;8.05;;;;;;;;;;5091182;28;20472;-57
2023/08/23 09:29:04;;;;;;;15.43;8.93;;;;;;;;;;5091581;28;20092;-58
2023/08/23 09:31:31;;;;;;;18.35;9.15;;;;;;;;;;5091608;28;20369;-58
2023/08/23 09:33:58;;;;;;;13.48;7.35;;;;;;;;;;5092066;28;20040;-57
2023/08/23 09:36:39;;;;;;;11.65;6.85;;;;;;;;;;5092073;28;20056;-57
2023/08/23 09:39:09;;;;;;;12.90;6.88;;;;;;;;;;5092218;28;20096;-57
2023/08/23 09:41:42;;;;;;;10.98;4.72;;;;;;;;;;5090946;28;20066;-57
2023/08/23 09:44:09;;;;;;;10.48;4.68;;;;;;;;;;5091858;28;20071;-57
2023/08/23 09:46:36;;;;;;;9.20;4.18;;;;;;;;;;5091892;28;20424;-58
2023/08/23 09:49:05;;;;;;;12.32;4.90;;;;;;;;;;5090881;28;20484;-57
2023/08/23 09:51:35;;;;;;;7.25;4.20;;;;;;;;;;5091376;28;20055;-58
2023/08/23 09:54:07;;;;;;;9.63;3.83;;;;;;;;;;5091819;28;20040;-58
2023/08/23 09:56:33;;;;;;;8.23;3.10;;;;;;;;;;5089974;28;20088;-58
2023/08/23 09:59:02;;;;;;;13.25;3.33;;;;;;;;;;5091573;28;20040;-58
2023/08/23 10:01:29;;;;;;;5.90;2.72;;;;;;;;;;5091347;28;20055;-58
2023/08/23 10:03:55;;;;;;;7.82;3.40;;;;;;;;;;5071553;28;20572;-58
2023/08/23 10:06:22;;;;;;;6.97;3.30;;;;;;;;;;5091431;28;20047;-58
2023/08/23 10:08:48;;;;;;;7.63;3.72;;;;;;;;;;5091480;28;20122;-58
2023/08/23 10:11:17;;;;;;;8.75;3.75;;;;;;;;;;5090505;28;20120;-58
2023/08/23 10:13:43;;;;;;;9.38;3.65;;;;;;;;;;5091328;28;20569;-58
2023/08/23 10:16:12;;;;;;;6.97;4.13;;;;;;;;;;5090737;28;20047;-58
2023/08/23 10:18:39;;;;;;;6.53;3.22;;;;;;;;;;5091182;28;20052;-58
2023/08/23 10:21:05;;;;;;;10.40;3.72;;;;;;;;;;5091338;28;20535;-58
2023/08/23 10:23:34;;;;;;;8.45;3.42;;;;;;;;;;5090221;28;20052;-58
2023/08/23 10:26:02;;;;;;;7.63;3.10;;;;;;;;;;5090086;28;20039;-58
2023/08/23 10:28:28;;;;;;;8.10;3.90;;;;;;;;;;5078345;28;20059;-58
2023/08/23 10:30:58;;;;;;;7.93;3.92;;;;;;;;;;5090260;28;20110;-58
2023/08/23 10:33:24;;;;;;;8.13;3.05;;;;;;;;;;5077169;28;20036;-58
2023/08/23 10:35:51;;;;;;;7.68;2.45;;;;;;;;;;5091097;28;20322;-58
2023/08/23 10:38:17;;;;;;;6.47;1.50;;;;;;;;;;5089977;28;20075;-58
2023/08/23 10:40:46;;;;;;;4.75;1.90;;;;;;;;;;5091014;28;20500;-58
2023/08/23 10:43:15;;;;;;;5.15;1.80;;;;;;;;;;5090544;28;20485;-58
2023/08/23 10:45:50;;;;;;;5.30;1.80;;;;;;;;;;5090351;28;20040;-58
2023/08/23 10:48:18;;;;;;;8.85;2.42;;;;;;;;;;5090847;28;20093;-58
2023/08/23 10:50:45;;;;;;;7.85;2.97;;;;;;;;;;5090668;28;20048;-58
2023/08/23 10:53:11;;;;;;;8.23;2.70;;;;;;;;;;5089999;28;20040;-58
2023/08/23 10:55:38;;;;;;;4.53;1.48;;;;;;;;;;5090650;28;20044;-58
2023/08/23 10:58:04;;;;;;;5.78;1.58;;;;;;;;;;5089570;28;20106;-58
2023/08/23 11:00:30;;;;;;;5.65;2.53;;;;;;;;;;5089998;28;20373;-58
2023/08/23 11:02:56;;;;;;;6.13;2.40;;;;;;;;;;5090764;28;20044;-58
2023/08/23 11:05:23;;;;;;;7.20;1.27;;;;;;;;;;5090488;28;20036;-58
2023/08/23 11:07:50;;;;;;;9.20;2.00;;;;;;;;;;5090222;28;20071;-58
2023/08/23 11:10:16;;;;;;;7.03;1.92;;;;;;;;;;5090614;28;20058;-58
2023/08/23 11:12:42;;;;;;;4.53;1.73;;;;;;;;;;5089654;28;20063;-58
2023/08/23 11:15:09;;;;;;;7.68;2.25;;;;;;;;;;5094394;28;20077;-58
2023/08/23 11:17:35;;;;;;;6.75;1.67;;;;;;;;;;5094688;28;20048;-58
2023/08/23 11:20:01;;;;;;;7.28;1.52;;;;;;;;;;5091656;28;20037;-58
2023/08/23 11:22:27;;;;;;;4.15;1.67;;;;;;;;;;5093095;28;20044;-58
2023/08/23 11:24:53;;;;;;;5.82;1.75;;;;;;;;;;5093084;28;20368;-58
2023/08/23 11:27:20;;;;;;;5.43;1.85;;;;;;;;;;5093778;28;20072;-58
2023/08/23 11:29:46;;;;;;;6.47;2.15;;;;;;;;;;5094283;28;20040;-58
2023/08/23 11:32:13;;;;;;;6.70;1.95;;;;;;;;;;5094590;28;20143;-58
2023/08/23 11:34:39;;;;;;;6.18;1.70;;;;;;;;;;5093653;28;20119;-58
2023/08/23 11:37:11;;;;;;;5.50;1.83;;;;;;;;;;5094511;28;20055;-58
2023/08/23 11:39:37;;;;;;;4.32;1.25;;;;;;;;;;5092666;28;20385;-58
2023/08/23 11:42:03;;;;;;;6.65;1.75;;;;;;;;;;5093773;28;20391;-58
2023/08/23 11:44:29;;;;;;;5.20;1.85;;;;;;;;;;5094301;28;20094;-58
2023/08/23 11:46:59;;;;;;;5.38;1.80;;;;;;;;;;5094065;28;20036;-58
2023/08/23 11:49:26;;;;;;;6.22;2.30;;;;;;;;;;5092291;28;20567;-58
2023/08/23 11:51:53;;;;;;;7.18;2.05;;;;;;;;;;5092490;28;20048;-58
2023/08/23 11:54:22;;;;;;;5.97;2.30;;;;;;;;;;5093817;28;20040;-58
2023/08/23 11:56:48;;;;;;;7.70;2.20;;;;;;;;;;5093090;28;20044;-58
2023/08/23 11:59:14;;;;;;;4.78;1.40;;;;;;;;;;5092681;28;20166;-58
2023/08/23 12:01:44;;;;;;;7.93;1.80;;;;;;;;;;5093507;28;20119;-58
2023/08/23 12:04:11;;;;;;;6.00;1.73;;;;;;;;;;5093702;28;20040;-58
2023/08/23 12:06:37;;;;;;;3.88;1.73;;;;;;;;;;5093765;28;20130;-58
2023/08/23 12:09:04;;;;;;;7.85;2.35;;;;;;;;;;5092777;28;20482;-58
2023/08/23 12:11:32;;;;;;;6.28;2.15;;;;;;;;;;5093922;28;20148;-58
2023/08/23 12:14:00;;;;;;;6.47;2.00;;;;;;;;;;5093966;28;20337;-58
2023/08/23 12:16:27;;;;;;;6.15;2.10;;;;;;;;;;5092777;28;20465;-58
2023/08/23 12:18:53;;;;;;;6.35;2.55;;;;;;;;;;5092658;28;20070;-58
2023/08/23 12:21:19;;;;;;;5.10;1.60;;;;;;;;;;5093280;28;20138;-58
2023/08/23 12:23:46;;;;;;;4.60;1.30;;;;;;;;;;5092667;28;20128;-58
2023/08/23 12:26:12;;;;;;;5.82;1.40;;;;;;;;;;5092497;28;20381;-58
2023/08/23 12:28:38;;;;;;;4.03;1.15;;;;;;;;;;5093332;28;20051;-58
2023/08/23 12:31:05;;;;;;;7.28;1.65;;;;;;;;;;5092368;28;20036;-58
2023/08/23 12:33:31;;;;;;;5.55;1.13;;;;;;;;;;5093204;28;20048;-58
2023/08/23 12:35:57;;;;;;;6.15;1.20;;;;;;;;;;5093269;28;20130;-58
2023/08/23 12:38:23;;;;;;;7.63;1.85;;;;;;;;;;5092233;28;20081;-58
2023/08/23 12:40:50;;;;;;;6.85;1.48;;;;;;;;;;5093119;28;20044;-58
2023/08/23 12:43:16;;;;;;;7.50;1.20;;;;;;;;;;5093055;28;20483;-58
2023/08/23 12:45:42;;;;;;;5.45;1.48;;;;;;;;;;5092308;28;20059;-58
2023/08/23 12:48:09;;;;;;;4.18;1.20;;;;;;;;;;5091966;28;20143;-58
2023/08/23 12:50:35;;;;;;;4.43;0.90;;;;;;;;;;5092769;28;20070;-58
2023/08/23 12:53:02;;;;;;;5.63;1.27;;;;;;;;;;5092448;28;20105;-58
2023/08/23 12:55:28;;;;;;;5.47;1.20;;;;;;;;;;5092525;28;20083;-58
2023/08/23 12:57:54;;;;;;;5.00;1.20;;;;;;;;;;5092881;28;20048;-58
2023/08/23 13:00:20;;;;;;;4.45;1.40;;;;;;;;;;5092295;28;20089;-57
2023/08/23 13:02:47;;;;;;;4.75;1.17;;;;;;;;;;5092574;28;20091;-58
2023/08/23 13:05:13;;;;;;;3.08;1.10;;;;;;;;;;5092093;28;20411;-58
2023/08/23 13:07:39;;;;;;;5.68;1.60;;;;;;;;;;5092458;28;20036;-58
2023/08/23 13:10:06;;;;;;;6.95;2.38;;;;;;;;;;5092752;28;20047;-58
2023/08/23 13:12:32;;;;;;;6.43;2.33;;;;;;;;;;5091545;28;20063;-58
2023/08/23 13:14:59;;;;;;;5.22;2.78;;;;;;;;;;5092596;28;20040;-58
2023/08/23 13:17:25;;;;;;;11.18;3.17;;;;;;;;;;5092234;28;20076;-58
2023/08/23 13:19:51;;;;;;;7.38;3.25;;;;;;;;;;5091017;28;20123;-58
2023/08/23 13:22:17;;;;;;;7.60;3.50;;;;;;;;;;5092269;28;20073;-58
2023/08/23 13:24:45;;;;;;;7.32;2.80;;;;;;;;;;5092313;28;20070;-58
2023/08/23 13:27:11;;;;;;;5.65;2.78;;;;;;;;;;5091584;28;20047;-58
2023/08/23 13:29:37;;;;;;;6.60;2.58;;;;;;;;;;5092048;28;20079;-58
2023/08/23 13:32:03;;;;;;;6.35;2.30;;;;;;;;;;5092200;28;20043;-58
2023/08/23 13:34:29;;;;;;;5.15;2.75;;;;;;;;;;5090672;28;20107;-58
2023/08/23 13:36:56;;;;;;;5.95;2.40;;;;;;;;;;5090645;28;20075;-58
2023/08/23 13:39:22;;;;;;;5.97;2.28;;;;;;;;;;5092034;28;20138;-58
2023/08/23 13:41:48;;;;;;;8.02;2.33;;;;;;;;;;5091078;28;20496;-58
2023/08/23 13:44:14;;;;;;;5.43;1.92;;;;;;;;;;5091834;28;20043;-58
2023/08/23 13:46:41;;;;;;;5.68;2.10;;;;;;;;;;5091724;28;20111;-58
2023/08/23 13:49:07;;;;;;;5.20;2.00;;;;;;;;;;5090217;28;20043;-58
2023/08/23 13:51:34;;;;;;;7.13;2.17;;;;;;;;;;5091447;28;20048;-58
2023/08/23 13:54:00;;;;;;;5.43;1.85;;;;;;;;;;5091599;28;20051;-58
2023/08/23 13:56:26;;;;;;;5.68;1.45;;;;;;;;;;5090976;28;20119;-58
2023/08/23 13:58:53;;;;;;;5.05;1.60;;;;;;;;;;5091533;28;20430;-58
2023/08/23 14:01:19;;;;;;;5.65;1.35;;;;;;;;;;5090712;28;20047;-58
2023/08/23 14:03:45;;;;;;;3.97;2.08;;;;;;;;;;5091478;28;20051;-58
2023/08/23 14:06:11;;;;;;;4.55;1.10;;;;;;;;;;5091552;28;20111;-58
2023/08/23 14:08:37;;;;;;;4.47;1.35;;;;;;;;;;5090950;28;20052;-58
2023/08/23 14:11:03;;;;;;;4.90;1.17;;;;;;;;;;5090490;28;20036;-58
2023/08/23 14:13:30;;;;;;;3.70;1.30;;;;;;;;;;5091332;28;20070;-58
2023/08/23 14:15:56;;;;;;;3.28;1.00;;;;;;;;;;5090582;28;20131;-58
2023/08/23 14:18:23;;;;;;;4.35;0.90;;;;;;;;;;5091245;28;20122;-58
2023/08/23 14:20:50;;;;;;;3.55;1.00;;;;;;;;;;5091245;28;20152;-58
2023/08/23 14:23:16;;;;;;;4.97;1.40;;;;;;;;;;5090566;28;20188;-58
2023/08/23 14:25:42;;;;;;;5.25;1.42;;;;;;;;;;5091149;28;20497;-58